SAS2892 EKCH-ENAL
Flight info
| Callsign | SAS2892 |
|---|---|
| Flight time | N/A |
| Altitude | 34000 |
| Route | GOLGA DCT OBITI |
| Aircraft | A320/M-SDE3FGHIRWY/LB1 |
Departure
| Time | N/A |
|---|---|
| Airport | Copenhagen Kastrup Airport (EKCH) |
Arrival
| Time | 2026-04-30 22:48 |
|---|---|
| Airport | Ålesund Airport (ENAL) |
| Time | Latitude | Longitude | Altitude | Speed | Heading |
|---|---|---|---|---|---|
| 2026-04-30 22:18 | 59.80448 | 9.21241 | 38378 ft | 425 kts | 336° |
| 2026-04-30 22:19 | 59.96429 | 9.08498 | 38375 ft | 427 kts | 335° |
| 2026-04-30 22:20 | 60.12725 | 8.95370 | 38386 ft | 427 kts | 335° |
| 2026-04-30 22:20 | 60.29246 | 8.81925 | 38406 ft | 427 kts | 335° |
| 2026-04-30 22:21 | 60.40237 | 8.72878 | 38384 ft | 428 kts | 334° |
| 2026-04-30 22:21 | 60.51280 | 8.63758 | 38413 ft | 429 kts | 334° |
| 2026-04-30 22:22 | 60.62321 | 8.54528 | 38400 ft | 430 kts | 334° |
| 2026-04-30 22:22 | 60.73379 | 8.45237 | 38381 ft | 429 kts | 334° |
| 2026-04-30 22:23 | 60.84400 | 8.35889 | 38398 ft | 429 kts | 333° |
| 2026-04-30 22:23 | 60.95431 | 8.26484 | 38390 ft | 429 kts | 333° |
| 2026-04-30 22:24 | 61.06469 | 8.17000 | 38369 ft | 430 kts | 333° |
| 2026-04-30 22:24 | 61.15473 | 8.09200 | 38355 ft | 432 kts | 332° |
| 2026-04-30 22:25 | 61.21024 | 8.04374 | 38408 ft | 432 kts | 333° |
| 2026-04-30 22:25 | 61.26582 | 7.99519 | 38354 ft | 434 kts | 332° |
| 2026-04-30 22:26 | 61.34949 | 7.92173 | 38007 ft | 435 kts | 332° |
| 2026-04-30 22:26 | 61.37757 | 7.89698 | 37731 ft | 434 kts | 332° |
| 2026-04-30 22:27 | 61.40536 | 7.87242 | 37450 ft | 434 kts | 332° |
| 2026-04-30 22:27 | 61.43312 | 7.84783 | 37156 ft | 433 kts | 332° |
| 2026-04-30 22:27 | 61.48893 | 7.79825 | 35622 ft | 438 kts | 332° |
| 2026-04-30 22:28 | 61.54552 | 7.74782 | 33890 ft | 446 kts | 331° |
| 2026-04-30 22:28 | 61.57416 | 7.72217 | 32913 ft | 449 kts | 331° |
| 2026-04-30 22:29 | 61.65037 | 7.65387 | 30267 ft | 459 kts | 332° |
| 2026-04-30 22:29 | 61.66743 | 7.63866 | 29527 ft | 462 kts | 332° |
| 2026-04-30 22:30 | 61.77570 | 7.54103 | 26190 ft | 454 kts | 331° |
| 2026-04-30 22:31 | 61.86122 | 7.46335 | 24120 ft | 439 kts | 331° |
| 2026-04-30 22:32 | 61.92655 | 7.40346 | 22505 ft | 426 kts | 330° |
| 2026-04-30 22:32 | 61.98005 | 7.35297 | 21300 ft | 412 kts | 325° |
| 2026-04-30 22:33 | 62.04070 | 7.23744 | 19741 ft | 378 kts | 303° |
| 2026-04-30 22:33 | 62.07599 | 7.15479 | 18294 ft | 392 kts | 317° |
| 2026-04-30 22:34 | 62.13807 | 7.07960 | 17005 ft | 389 kts | 334° |
| 2026-04-30 22:35 | 62.17831 | 7.05141 | 16633 ft | 373 kts | 334° |
| 2026-04-30 22:36 | 62.27419 | 6.98433 | 13758 ft | 356 kts | 334° |
| 2026-04-30 22:36 | 62.29755 | 6.96791 | 12885 ft | 351 kts | 334° |
| 2026-04-30 22:37 | 62.36504 | 6.92081 | 11082 ft | 321 kts | 334° |
| 2026-04-30 22:37 | 62.38590 | 6.90623 | 10657 ft | 310 kts | 333° |
| 2026-04-30 22:37 | 62.42615 | 6.87773 | 9985 ft | 298 kts | 334° |
| 2026-04-30 22:38 | 62.46452 | 6.85055 | 9661 ft | 282 kts | 333° |
| 2026-04-30 22:38 | 62.50130 | 6.82445 | 9154 ft | 275 kts | 333° |
| 2026-04-30 22:39 | 62.51915 | 6.81182 | 8960 ft | 263 kts | 332° |
| 2026-04-30 22:39 | 62.57243 | 6.77342 | 7154 ft | 272 kts | 333° |
| 2026-04-30 22:40 | 62.62369 | 6.72185 | 5871 ft | 271 kts | 329° |
| 2026-04-30 22:41 | 62.66734 | 6.66129 | 5387 ft | 220 kts | 285° |
| 2026-04-30 22:41 | 62.66643 | 6.60207 | 4957 ft | 192 kts | 242° |
| 2026-04-30 22:42 | 62.64529 | 6.50243 | 3851 ft | 167 kts | 242° |
| 2026-04-30 22:43 | 62.63550 | 6.45755 | 3365 ft | 165 kts | 242° |
| 2026-04-30 22:43 | 62.62585 | 6.41251 | 2962 ft | 161 kts | 242° |
| 2026-04-30 22:44 | 62.61646 | 6.36895 | 2473 ft | 158 kts | 242° |
| 2026-04-30 22:45 | 62.59917 | 6.28867 | 1651 ft | 136 kts | 243° |
| 2026-04-30 22:45 | 62.59116 | 6.25168 | 1289 ft | 135 kts | 244° |
| 2026-04-30 22:46 | 62.58316 | 6.21467 | 960 ft | 136 kts | 245° |
| 2026-04-30 22:47 | 62.56768 | 6.14320 | 243 ft | 128 kts | 244° |
| 2026-04-30 22:47 | 62.56047 | 6.11044 | 73 ft | 88 kts | 245° |
| 2026-04-30 22:48 | 62.55872 | 6.10178 | 57 ft | 6 kts | 214° |
| 2026-04-30 22:49 | 62.55939 | 6.10542 | 73 ft | 10 kts | 64° |
| 2026-04-30 22:49 | 62.55899 | 6.11051 | 60 ft | 6 kts | 104° |
| 2026-04-30 22:50 | 62.55942 | 6.11329 | 75 ft | 1 kts | 64° |
| 2026-04-30 22:51 | 62.55942 | 6.11330 | 75 ft | 0 kts | 64° |
| 2026-04-30 22:53 | 62.55953 | 6.11405 | 68 ft | 6 kts | 93° |
| 2026-04-30 22:53 | 62.55927 | 6.11450 | 75 ft | 3 kts | 154° |
| 2026-04-30 22:54 | 62.55909 | 6.11468 | 75 ft | 0 kts | 154° |